createdAt,value
2019-05-07T00:01:52.547Z,7.84
2019-05-07T00:06:57.883Z,7.69
2019-05-07T00:12:05.142Z,7.57
2019-05-07T00:17:10.419Z,7.50
2019-05-07T00:22:15.681Z,7.48
2019-05-07T00:27:22.629Z,7.47
2019-05-07T00:32:28.572Z,7.48
2019-05-07T00:37:43.137Z,7.59
2019-05-07T00:43:05.433Z,7.56
2019-05-07T00:48:12.603Z,7.49
2019-05-07T00:53:17.488Z,7.53
2019-05-07T00:58:26.458Z,7.54
2019-05-07T01:03:29.431Z,7.46
2019-05-07T01:08:34.645Z,7.44
2019-05-07T01:13:40.116Z,7.46
2019-05-07T01:18:45.463Z,7.43
2019-05-07T01:23:52.317Z,7.51
2019-05-07T01:29:02.867Z,7.36
2019-05-07T01:34:09.635Z,7.32
2019-05-07T01:39:14.891Z,7.19
2019-05-07T01:44:22.161Z,7.04
2019-05-07T01:49:27.256Z,6.97
2019-05-07T01:54:33.202Z,6.90
2019-05-07T01:59:38.720Z,6.95
2019-05-07T02:04:45.487Z,6.93
2019-05-07T02:10:04.460Z,6.93
2019-05-07T02:15:11.941Z,6.99
2019-05-07T02:20:17.829Z,6.90
2019-05-07T02:25:23.084Z,6.82
2019-05-07T02:30:29.686Z,6.75
2019-05-07T02:35:35.008Z,6.68
2019-05-07T02:40:43.317Z,6.65
2019-05-07T02:45:56.328Z,6.65
2019-05-07T02:51:06.073Z,6.60
2019-05-07T02:56:13.042Z,6.62
2019-05-07T03:01:18.492Z,6.59
2019-05-07T03:06:23.698Z,6.61
2019-05-07T03:11:28.988Z,6.57
2019-05-07T03:16:43.196Z,6.48
2019-05-07T03:21:53.935Z,6.41
2019-05-07T03:27:03.178Z,6.46
2019-05-07T03:32:28.557Z,6.53
2019-05-07T03:37:36.454Z,6.55
2019-05-07T03:42:44.008Z,6.56
2019-05-07T03:47:53.917Z,6.49
2019-05-07T03:52:57.475Z,6.51
2019-05-07T03:58:03.284Z,6.52
2019-05-07T04:03:08.663Z,6.54
2019-05-07T04:08:14.922Z,6.61
2019-05-07T04:13:23.533Z,6.63
2019-05-07T04:18:26.946Z,6.67
2019-05-07T04:23:34.288Z,6.72
2019-05-07T04:28:57.262Z,6.90
2019-05-07T04:34:04.309Z,6.96
2019-05-07T04:39:09.655Z,6.98
2019-05-07T04:44:15.019Z,7.04
2019-05-07T04:49:23.588Z,7.08
2019-05-07T04:54:27.267Z,7.20
2019-05-07T04:59:33.033Z,7.21
2019-05-07T05:04:38.706Z,7.33
2019-05-07T05:09:44.272Z,7.42
2019-05-07T05:14:49.382Z,7.60
2019-05-07T05:19:56.150Z,7.73
2019-05-07T05:25:14.928Z,7.85
2019-05-07T05:30:32.711Z,7.97
2019-05-07T05:35:38.619Z,8.09
2019-05-07T05:40:44.821Z,8.17
2019-05-07T05:45:53.038Z,8.27
2019-05-07T05:50:59.755Z,8.45
2019-05-07T05:56:12.812Z,8.72
2019-05-07T06:01:36.243Z,9.11
2019-05-07T06:06:46.201Z,9.11
2019-05-07T06:11:53.094Z,9.19
2019-05-07T06:17:16.167Z,9.25
2019-05-07T06:22:38.225Z,9.17
2019-05-07T06:27:43.466Z,9.52
2019-05-07T06:32:48.695Z,9.49
2019-05-07T06:37:53.912Z,9.10
2019-05-07T06:43:03.108Z,9.10
2019-05-07T06:48:07.994Z,9.40
2019-05-07T06:53:13.277Z,9.40
2019-05-07T06:58:18.617Z,9.42
2019-05-07T07:03:28.275Z,9.55
2019-05-07T07:08:35.162Z,9.89
2019-05-07T07:13:42.551Z,9.67
2019-05-07T07:18:52.069Z,9.81
2019-05-07T07:23:54.526Z,10.08
2019-05-07T07:29:01.948Z,10.14
2019-05-07T07:34:07.784Z,10.24
2019-05-07T07:39:12.938Z,10.34
2019-05-07T07:44:18.234Z,10.46
2019-05-07T07:49:23.869Z,10.84
2019-05-07T07:54:29.316Z,11.09
2019-05-07T07:59:39.142Z,11.40
2019-05-07T08:04:44.747Z,11.44
2019-05-07T08:09:51.898Z,11.25
2019-05-07T08:15:13.557Z,10.94
2019-05-07T08:20:07.296Z,10.73
2019-05-07T08:25:14.062Z,10.48
2019-05-07T08:30:22.414Z,10.93
2019-05-07T08:35:37.746Z,11.54
2019-05-07T08:40:43.196Z,11.84
2019-05-07T08:45:52.728Z,12.31
2019-05-07T08:50:58.176Z,12.69
2019-05-07T08:56:03.544Z,11.88
2019-05-07T09:01:08.903Z,11.54
2019-05-07T09:06:14.970Z,11.65
2019-05-07T09:11:22.939Z,11.96
2019-05-07T09:16:27.621Z,12.14
2019-05-07T09:21:35.255Z,12.23
2019-05-07T09:26:52.381Z,12.32
2019-05-07T09:32:15.244Z,12.65
2019-05-07T09:37:28.122Z,12.95
2019-05-07T09:42:33.630Z,13.37
2019-05-07T09:47:39.097Z,13.34
2019-05-07T09:52:44.566Z,13.59
2019-05-07T09:57:49.772Z,13.20
2019-05-07T10:02:56.745Z,12.51
2019-05-07T10:08:02.272Z,11.90
2019-05-07T10:13:25.861Z,11.53
2019-05-07T10:18:32.130Z,11.01
2019-05-07T10:23:38.006Z,11.09
2019-05-07T10:28:43.989Z,11.45
2019-05-07T10:33:49.410Z,12.29
2019-05-07T10:38:54.977Z,13.29
2019-05-07T10:44:02.422Z,13.72
2019-05-07T10:49:12.294Z,14.17
2019-05-07T10:54:18.869Z,14.27
2019-05-07T10:59:24.159Z,13.86
2019-05-07T11:04:40.304Z,13.12
2019-05-07T11:09:36.784Z,13.21
2019-05-07T11:14:42.041Z,13.12
2019-05-07T11:19:47.291Z,13.21
2019-05-07T11:24:52.503Z,13.28
2019-05-07T11:29:57.737Z,13.21
2019-05-07T11:35:05.446Z,13.53
2019-05-07T11:40:12.966Z,13.82
2019-05-07T11:45:19.722Z,13.57
2019-05-07T11:50:26.488Z,13.78
2019-05-07T11:55:31.687Z,14.27
2019-05-07T12:00:44.491Z,13.46
2019-05-07T12:05:49.790Z,13.08
2019-05-07T12:10:55.337Z,13.70
2019-05-07T12:16:02.687Z,13.88
2019-05-07T12:21:18.353Z,13.86
2019-05-07T12:26:15.096Z,13.78
2019-05-07T12:31:22.473Z,13.29
2019-05-07T12:36:28.178Z,13.25
2019-05-07T12:41:34.374Z,14.21
2019-05-07T12:46:42.112Z,14.73
2019-05-07T12:51:57.383Z,15.24
2019-05-07T12:57:02.693Z,14.56
2019-05-07T13:02:33.418Z,15.30
2019-05-07T13:07:24.319Z,16.09
2019-05-07T13:12:29.634Z,17.91
2019-05-07T13:17:34.861Z,17.16
2019-05-07T13:22:40.234Z,17.28
2019-05-07T13:27:46.134Z,18.31
2019-05-07T13:32:52.590Z,18.81
2019-05-07T13:38:05.284Z,18.00
2019-05-07T13:43:12.265Z,18.84
2019-05-07T13:48:22.361Z,18.32
2019-05-07T13:53:27.792Z,18.18
2019-05-07T13:58:33.105Z,17.84
2019-05-07T14:03:38.511Z,19.42
2019-05-07T14:08:45.588Z,19.66
2019-05-07T14:13:52.264Z,20.24
2019-05-07T14:18:58.206Z,20.18
2019-05-07T14:24:03.817Z,18.71
2019-05-07T14:29:09.207Z,19.49
2019-05-07T14:34:16.309Z,20.56
2019-05-07T14:39:22.026Z,22.23
2019-05-07T14:44:31.763Z,20.55
2019-05-07T14:49:37.346Z,20.71
2019-05-07T14:54:43.140Z,20.15
2019-05-07T14:59:48.496Z,20.14
2019-05-07T15:04:53.966Z,20.59
2019-05-07T15:09:59.367Z,21.05
2019-05-07T15:15:09.632Z,17.78
2019-05-07T15:20:15.671Z,16.69
2019-05-07T15:25:22.689Z,16.61
2019-05-07T15:30:32.474Z,18.98
2019-05-07T15:35:38.503Z,18.82
2019-05-07T15:40:43.910Z,18.80
2019-05-07T15:45:49.260Z,18.48
2019-05-07T15:50:54.614Z,17.99
2019-05-07T15:56:01.788Z,18.67
2019-05-07T16:01:08.461Z,16.97
2019-05-07T16:06:13.920Z,18.61
2019-05-07T16:11:23.226Z,19.80
2019-05-07T16:16:28.766Z,19.52
2019-05-07T16:21:33.868Z,17.09
2019-05-07T16:26:39.124Z,14.79
2019-05-07T16:31:44.827Z,14.77
2019-05-07T16:36:50.180Z,14.34
2019-05-07T16:41:55.479Z,13.84
2019-05-07T16:47:02.678Z,13.31
2019-05-07T16:52:07.715Z,13.10
2019-05-07T16:57:24.186Z,13.02
2019-05-07T17:02:32.126Z,13.06
2019-05-07T17:07:49.190Z,13.32
2019-05-07T17:12:54.485Z,12.71
2019-05-07T17:17:59.769Z,12.53
2019-05-07T17:23:05.480Z,12.41
2019-05-07T17:28:12.632Z,12.23
2019-05-07T17:33:18.131Z,12.37
2019-05-07T17:38:23.549Z,12.26
2019-05-07T17:43:28.950Z,12.12
2019-05-07T17:48:34.392Z,11.97
2019-05-07T17:53:40.056Z,11.85
2019-05-07T17:58:45.723Z,11.72
2019-05-07T18:03:52.312Z,11.60
2019-05-07T18:08:57.765Z,11.36
2019-05-07T18:14:02.944Z,11.28
2019-05-07T18:19:08.401Z,11.21
2019-05-07T18:24:16.845Z,11.08
2019-05-07T18:29:22.599Z,10.93
2019-05-07T18:34:28.448Z,10.75
2019-05-07T18:39:33.937Z,10.69
2019-05-07T18:44:41.594Z,10.59
2019-05-07T18:49:46.586Z,10.48
2019-05-07T18:54:52.117Z,10.27
2019-05-07T18:59:57.863Z,10.21
2019-05-07T19:05:03.332Z,9.95
2019-05-07T19:10:09.128Z,9.96
2019-05-07T19:15:15.098Z,9.96
2019-05-07T19:20:21.811Z,9.69
2019-05-07T19:25:27.469Z,9.69
2019-05-07T19:30:32.778Z,9.69
2019-05-07T19:35:41.857Z,9.12
2019-05-07T19:40:47.259Z,9.12
2019-05-07T19:45:52.723Z,8.84
2019-05-07T19:50:57.879Z,8.74
2019-05-07T19:56:05.064Z,8.52
2019-05-07T20:01:12.221Z,8.44
2019-05-07T20:06:18.219Z,8.46
2019-05-07T20:11:25.029Z,8.38
2019-05-07T20:16:32.400Z,8.21
2019-05-07T20:21:37.123Z,8.06
2019-05-07T20:26:43.207Z,7.98
2019-05-07T20:31:50.212Z,8.01
2019-05-07T20:36:55.581Z,7.89
2019-05-07T20:42:02.962Z,7.98
2019-05-07T20:47:07.813Z,7.83
2019-05-07T20:52:13.205Z,7.77
2019-05-07T20:57:22.402Z,7.50
2019-05-07T21:02:41.787Z,7.47
2019-05-07T21:07:34.743Z,7.47
2019-05-07T21:12:42.262Z,7.36
2019-05-07T21:17:47.023Z,7.23
2019-05-07T21:22:52.106Z,7.14
2019-05-07T21:27:57.454Z,6.98
2019-05-07T21:33:02.854Z,6.80
2019-05-07T21:38:08.235Z,6.77
2019-05-07T21:43:14.187Z,6.63
2019-05-07T21:48:22.127Z,6.62
2019-05-07T21:53:37.797Z,6.73
2019-05-07T21:58:53.868Z,6.57
2019-05-07T22:03:58.986Z,6.53
2019-05-07T22:09:07.205Z,6.37
2019-05-07T22:14:13.133Z,6.37
2019-05-07T22:19:18.609Z,6.27
2019-05-07T22:24:23.851Z,6.20
2019-05-07T22:29:29.012Z,6.24
2019-05-07T22:34:42.353Z,6.10
2019-05-07T22:39:49.575Z,6.12
2019-05-07T22:44:59.127Z,6.10
2019-05-07T22:50:05.267Z,6.13
2019-05-07T22:55:13.924Z,6.04
2019-05-07T23:00:22.715Z,6.03
2019-05-07T23:05:28.210Z,5.98
2019-05-07T23:10:33.758Z,5.85
2019-05-07T23:15:39.274Z,5.72
2019-05-07T23:20:45.242Z,5.71
2019-05-07T23:25:52.375Z,5.66
2019-05-07T23:30:57.698Z,5.70
2019-05-07T23:36:03.294Z,5.68
2019-05-07T23:41:12.769Z,5.55
2019-05-07T23:46:18.281Z,5.50
2019-05-07T23:51:23.789Z,5.50
2019-05-07T23:56:29.121Z,5.55
